sensor_id;sensor_type;location;lat;lon;timestamp;P1;durP1;ratioP1;P2;durP2;ratioP2
1174;SDS011;576;48.418;10.074;2022-11-11T00:02:18;5.90;;;4.40;;
1174;SDS011;576;48.418;10.074;2022-11-11T00:05:05;5.20;;;4.80;;
1174;SDS011;576;48.418;10.074;2022-11-11T00:07:53;4.67;;;4.27;;
1174;SDS011;576;48.418;10.074;2022-11-11T00:10:43;4.80;;;4.37;;
1174;SDS011;576;48.418;10.074;2022-11-11T00:13:30;4.10;;;3.73;;
1174;SDS011;576;48.418;10.074;2022-11-11T00:16:18;4.43;;;4.13;;
1174;SDS011;576;48.418;10.074;2022-11-11T00:19:05;4.90;;;4.33;;
1174;SDS011;576;48.418;10.074;2022-11-11T00:22:14;5.50;;;4.03;;
1174;SDS011;576;48.418;10.074;2022-11-11T00:25:24;4.27;;;3.87;;
1174;SDS011;576;48.418;10.074;2022-11-11T00:28:11;4.60;;;4.20;;
1174;SDS011;576;48.418;10.074;2022-11-11T00:31:01;5.70;;;4.57;;
1174;SDS011;576;48.418;10.074;2022-11-11T00:33:51;4.67;;;4.27;;
1174;SDS011;576;48.418;10.074;2022-11-11T00:36:37;5.17;;;4.43;;
1174;SDS011;576;48.418;10.074;2022-11-11T00:39:28;4.90;;;4.40;;
1174;SDS011;576;48.418;10.074;2022-11-11T00:42:16;5.63;;;5.10;;
1174;SDS011;576;48.418;10.074;2022-11-11T00:45:04;5.30;;;4.80;;
1174;SDS011;576;48.418;10.074;2022-11-11T00:47:51;8.83;;;5.43;;
1174;SDS011;576;48.418;10.074;2022-11-11T00:50:55;4.50;;;4.10;;
1174;SDS011;576;48.418;10.074;2022-11-11T00:53:44;5.07;;;4.20;;
1174;SDS011;576;48.418;10.074;2022-11-11T00:56:32;5.20;;;4.70;;
1174;SDS011;576;48.418;10.074;2022-11-11T00:59:21;5.07;;;4.67;;
1174;SDS011;576;48.418;10.074;2022-11-11T01:02:08;4.80;;;4.40;;
1174;SDS011;576;48.418;10.074;2022-11-11T01:04:55;4.57;;;4.17;;
1174;SDS011;576;48.418;10.074;2022-11-11T01:07:42;4.93;;;4.43;;
1174;SDS011;576;48.418;10.074;2022-11-11T01:10:28;4.43;;;4.03;;
1174;SDS011;576;48.418;10.074;2022-11-11T01:13:26;4.23;;;3.90;;
1174;SDS011;576;48.418;10.074;2022-11-11T01:16:16;4.83;;;4.43;;
1174;SDS011;576;48.418;10.074;2022-11-11T01:19:05;4.20;;;3.80;;
1174;SDS011;576;48.418;10.074;2022-11-11T01:21:52;4.17;;;3.87;;
1174;SDS011;576;48.418;10.074;2022-11-11T01:24:39;4.90;;;4.50;;
1174;SDS011;576;48.418;10.074;2022-11-11T01:27:25;4.50;;;4.10;;
1174;SDS011;576;48.418;10.074;2022-11-11T01:30:11;4.70;;;4.30;;
1174;SDS011;576;48.418;10.074;2022-11-11T01:33:00;4.97;;;4.33;;
1174;SDS011;576;48.418;10.074;2022-11-11T01:35:47;4.87;;;4.43;;
1174;SDS011;576;48.418;10.074;2022-11-11T01:38:34;4.60;;;4.30;;
1174;SDS011;576;48.418;10.074;2022-11-11T01:41:22;4.90;;;4.40;;
1174;SDS011;576;48.418;10.074;2022-11-11T01:47:31;5.07;;;4.53;;
1174;SDS011;576;48.418;10.074;2022-11-11T01:50:55;4.77;;;4.20;;
1174;SDS011;576;48.418;10.074;2022-11-11T01:53:43;4.73;;;4.30;;
1174;SDS011;576;48.418;10.074;2022-11-11T01:56:30;5.13;;;4.50;;
1174;SDS011;576;48.418;10.074;2022-11-11T01:59:18;5.10;;;4.60;;
1174;SDS011;576;48.418;10.074;2022-11-11T02:02:08;4.10;;;3.80;;
1174;SDS011;576;48.418;10.074;2022-11-11T02:04:59;5.07;;;4.70;;
1174;SDS011;576;48.418;10.074;2022-11-11T02:08:10;4.67;;;4.33;;
1174;SDS011;576;48.418;10.074;2022-11-11T02:11:17;4.90;;;4.40;;
1174;SDS011;576;48.418;10.074;2022-11-11T02:14:26;4.80;;;4.50;;
1174;SDS011;576;48.418;10.074;2022-11-11T02:17:22;4.67;;;4.23;;
1174;SDS011;576;48.418;10.074;2022-11-11T02:20:10;4.47;;;4.10;;
1174;SDS011;576;48.418;10.074;2022-11-11T02:23:00;4.60;;;4.20;;
1174;SDS011;576;48.418;10.074;2022-11-11T02:25:54;4.80;;;4.43;;
1174;SDS011;576;48.418;10.074;2022-11-11T02:28:42;3.87;;;3.53;;
1174;SDS011;576;48.418;10.074;2022-11-11T02:31:31;4.43;;;4.03;;
1174;SDS011;576;48.418;10.074;2022-11-11T02:34:18;4.90;;;4.40;;
1174;SDS011;576;48.418;10.074;2022-11-11T02:37:05;4.53;;;4.13;;
1174;SDS011;576;48.418;10.074;2022-11-11T02:39:56;4.50;;;4.20;;
1174;SDS011;576;48.418;10.074;2022-11-11T02:42:50;5.00;;;4.60;;
1174;SDS011;576;48.418;10.074;2022-11-11T02:45:37;4.73;;;4.33;;
1174;SDS011;576;48.418;10.074;2022-11-11T02:48:24;5.10;;;4.60;;
1174;SDS011;576;48.418;10.074;2022-11-11T02:51:11;4.20;;;3.90;;
1174;SDS011;576;48.418;10.074;2022-11-11T02:53:57;4.47;;;4.07;;
1174;SDS011;576;48.418;10.074;2022-11-11T02:56:47;4.53;;;4.23;;
1174;SDS011;576;48.418;10.074;2022-11-11T02:59:53;4.97;;;4.60;;
1174;SDS011;576;48.418;10.074;2022-11-11T03:02:42;4.40;;;4.00;;
1174;SDS011;576;48.418;10.074;2022-11-11T03:05:29;4.10;;;3.80;;
1174;SDS011;576;48.418;10.074;2022-11-11T03:08:16;4.33;;;4.03;;
1174;SDS011;576;48.418;10.074;2022-11-11T03:11:03;4.50;;;4.10;;
1174;SDS011;576;48.418;10.074;2022-11-11T03:13:50;4.43;;;4.13;;
1174;SDS011;576;48.418;10.074;2022-11-11T03:16:38;4.10;;;3.80;;
1174;SDS011;576;48.418;10.074;2022-11-11T03:19:42;4.00;;;3.60;;
1174;SDS011;576;48.418;10.074;2022-11-11T03:22:29;3.60;;;3.40;;
1174;SDS011;576;48.418;10.074;2022-11-11T03:25:36;4.23;;;3.93;;
1174;SDS011;576;48.418;10.074;2022-11-11T03:28:23;3.90;;;3.60;;
1174;SDS011;576;48.418;10.074;2022-11-11T03:31:10;4.03;;;3.80;;
1174;SDS011;576;48.418;10.074;2022-11-11T03:33:58;3.50;;;3.30;;
1174;SDS011;576;48.418;10.074;2022-11-11T03:37:02;4.70;;;4.30;;
1174;SDS011;576;48.418;10.074;2022-11-11T03:40:07;3.57;;;3.27;;
1174;SDS011;576;48.418;10.074;2022-11-11T03:42:55;4.00;;;3.80;;
1174;SDS011;576;48.418;10.074;2022-11-11T03:45:48;4.00;;;3.60;;
1174;SDS011;576;48.418;10.074;2022-11-11T03:48:34;3.60;;;3.30;;
1174;SDS011;576;48.418;10.074;2022-11-11T03:51:22;4.00;;;3.70;;
1174;SDS011;576;48.418;10.074;2022-11-11T03:54:09;4.10;;;3.80;;
1174;SDS011;576;48.418;10.074;2022-11-11T03:56:56;4.30;;;4.00;;
1174;SDS011;576;48.418;10.074;2022-11-11T04:00:03;5.00;;;4.70;;
1174;SDS011;576;48.418;10.074;2022-11-11T04:03:02;3.90;;;3.60;;
1174;SDS011;576;48.418;10.074;2022-11-11T04:06:08;4.00;;;3.70;;
1174;SDS011;576;48.418;10.074;2022-11-11T04:09:13;3.87;;;3.60;;
1174;SDS011;576;48.418;10.074;2022-11-11T04:12:18;4.23;;;3.93;;
1174;SDS011;576;48.418;10.074;2022-11-11T04:15:05;4.17;;;3.87;;
1174;SDS011;576;48.418;10.074;2022-11-11T04:18:10;3.50;;;3.20;;
1174;SDS011;576;48.418;10.074;2022-11-11T04:20:57;4.43;;;4.10;;
1174;SDS011;576;48.418;10.074;2022-11-11T04:24:01;4.10;;;3.80;;
1174;SDS011;576;48.418;10.074;2022-11-11T04:27:11;3.60;;;3.30;;
1174;SDS011;576;48.418;10.074;2022-11-11T04:29:58;3.60;;;3.30;;
1174;SDS011;576;48.418;10.074;2022-11-11T04:32:44;3.50;;;3.30;;
1174;SDS011;576;48.418;10.074;2022-11-11T04:35:32;3.90;;;3.60;;
1174;SDS011;576;48.418;10.074;2022-11-11T04:38:19;3.90;;;3.60;;
1174;SDS011;576;48.418;10.074;2022-11-11T04:41:23;4.27;;;3.97;;
1174;SDS011;576;48.418;10.074;2022-11-11T04:44:30;3.93;;;3.63;;
1174;SDS011;576;48.418;10.074;2022-11-11T04:47:35;4.27;;;3.87;;
1174;SDS011;576;48.418;10.074;2022-11-11T04:50:22;3.73;;;3.23;;
1174;SDS011;576;48.418;10.074;2022-11-11T04:53:10;3.67;;;3.37;;
1174;SDS011;576;48.418;10.074;2022-11-11T04:55:58;4.00;;;3.70;;
1174;SDS011;576;48.418;10.074;2022-11-11T04:59:02;4.03;;;3.73;;
1174;SDS011;576;48.418;10.074;2022-11-11T05:02:07;3.50;;;3.30;;
1174;SDS011;576;48.418;10.074;2022-11-11T05:05:12;4.23;;;3.93;;
1174;SDS011;576;48.418;10.074;2022-11-11T05:07:58;3.60;;;3.40;;
1174;SDS011;576;48.418;10.074;2022-11-11T05:11:02;3.57;;;3.37;;
1174;SDS011;576;48.418;10.074;2022-11-11T05:13:50;3.47;;;3.20;;
1174;SDS011;576;48.418;10.074;2022-11-11T05:16:55;3.60;;;3.40;;
1174;SDS011;576;48.418;10.074;2022-11-11T05:20:01;3.40;;;3.20;;
1174;SDS011;576;48.418;10.074;2022-11-11T05:23:06;3.50;;;3.30;;
1174;SDS011;576;48.418;10.074;2022-11-11T05:25:52;3.53;;;3.33;;
1174;SDS011;576;48.418;10.074;2022-11-11T05:28:37;3.63;;;3.40;;
1174;SDS011;576;48.418;10.074;2022-11-11T05:31:24;3.43;;;3.10;;
1174;SDS011;576;48.418;10.074;2022-11-11T05:34:10;3.30;;;3.10;;
1174;SDS011;576;48.418;10.074;2022-11-11T05:36:58;3.90;;;3.60;;
1174;SDS011;576;48.418;10.074;2022-11-11T05:39:45;3.57;;;3.37;;
1174;SDS011;576;48.418;10.074;2022-11-11T05:42:31;3.47;;;3.27;;
1174;SDS011;576;48.418;10.074;2022-11-11T05:45:18;4.20;;;3.90;;
1174;SDS011;576;48.418;10.074;2022-11-11T05:48:04;4.00;;;3.70;;
1174;SDS011;576;48.418;10.074;2022-11-11T05:50:51;3.10;;;2.90;;
1174;SDS011;576;48.418;10.074;2022-11-11T05:53:38;3.60;;;3.30;;
1174;SDS011;576;48.418;10.074;2022-11-11T05:56:25;3.60;;;3.30;;
1174;SDS011;576;48.418;10.074;2022-11-11T05:59:12;3.53;;;3.33;;
1174;SDS011;576;48.418;10.074;2022-11-11T06:01:58;3.40;;;3.10;;
1174;SDS011;576;48.418;10.074;2022-11-11T06:04:45;5.07;;;3.83;;
1174;SDS011;576;48.418;10.074;2022-11-11T06:07:32;3.70;;;3.43;;
1174;SDS011;576;48.418;10.074;2022-11-11T06:10:20;3.70;;;3.33;;
1174;SDS011;576;48.418;10.074;2022-11-11T06:13:16;5.47;;;4.03;;
1174;SDS011;576;48.418;10.074;2022-11-11T06:16:02;3.97;;;3.67;;
1174;SDS011;576;48.418;10.074;2022-11-11T06:18:50;3.47;;;3.17;;
1174;SDS011;576;48.418;10.074;2022-11-11T06:21:37;4.30;;;3.60;;
1174;SDS011;576;48.418;10.074;2022-11-11T06:24:38;3.53;;;3.30;;
1174;SDS011;576;48.418;10.074;2022-11-11T06:27:26;4.30;;;4.00;;
1174;SDS011;576;48.418;10.074;2022-11-11T06:30:12;4.10;;;2.90;;
1174;SDS011;576;48.418;10.074;2022-11-11T06:33:20;4.07;;;3.70;;
1174;SDS011;576;48.418;10.074;2022-11-11T06:36:08;3.73;;;3.43;;
1174;SDS011;576;48.418;10.074;2022-11-11T06:38:56;4.20;;;3.67;;
1174;SDS011;576;48.418;10.074;2022-11-11T06:41:42;3.60;;;3.30;;
1174;SDS011;576;48.418;10.074;2022-11-11T06:44:31;6.40;;;3.97;;
1174;SDS011;576;48.418;10.074;2022-11-11T06:47:17;5.13;;;4.00;;
1174;SDS011;576;48.418;10.074;2022-11-11T06:50:05;3.93;;;3.63;;
1174;SDS011;576;48.418;10.074;2022-11-11T06:52:52;6.80;;;3.83;;
1174;SDS011;576;48.418;10.074;2022-11-11T06:55:38;3.30;;;3.00;;
1174;SDS011;576;48.418;10.074;2022-11-11T06:58:26;3.60;;;3.30;;
1174;SDS011;576;48.418;10.074;2022-11-11T07:01:13;4.60;;;3.90;;
1174;SDS011;576;48.418;10.074;2022-11-11T07:04:00;15.43;;;5.33;;
1174;SDS011;576;48.418;10.074;2022-11-11T07:06:47;8.10;;;4.23;;
1174;SDS011;576;48.418;10.074;2022-11-11T07:09:33;5.73;;;4.00;;
1174;SDS011;576;48.418;10.074;2022-11-11T07:12:20;9.47;;;5.50;;
1174;SDS011;576;48.418;10.074;2022-11-11T07:15:08;12.53;;;6.10;;
1174;SDS011;576;48.418;10.074;2022-11-11T07:17:56;8.93;;;5.10;;
1174;SDS011;576;48.418;10.074;2022-11-11T07:20:43;13.60;;;5.10;;
1174;SDS011;576;48.418;10.074;2022-11-11T07:23:30;9.80;;;6.60;;
1174;SDS011;576;48.418;10.074;2022-11-11T07:26:16;12.03;;;6.47;;
1174;SDS011;576;48.418;10.074;2022-11-11T07:29:03;11.57;;;7.03;;
1174;SDS011;576;48.418;10.074;2022-11-11T07:31:49;11.60;;;6.60;;
1174;SDS011;576;48.418;10.074;2022-11-11T07:34:37;10.33;;;6.17;;
1174;SDS011;576;48.418;10.074;2022-11-11T07:37:24;10.03;;;5.97;;
1174;SDS011;576;48.418;10.074;2022-11-11T07:40:11;10.33;;;5.93;;
1174;SDS011;576;48.418;10.074;2022-11-11T07:42:59;7.57;;;5.07;;
1174;SDS011;576;48.418;10.074;2022-11-11T07:45:46;11.53;;;6.47;;
1174;SDS011;576;48.418;10.074;2022-11-11T07:48:32;12.53;;;6.10;;
1174;SDS011;576;48.418;10.074;2022-11-11T07:51:20;12.23;;;6.23;;
1174;SDS011;576;48.418;10.074;2022-11-11T07:54:07;10.10;;;5.43;;
1174;SDS011;576;48.418;10.074;2022-11-11T07:56:54;5.73;;;5.00;;
1174;SDS011;576;48.418;10.074;2022-11-11T07:59:41;9.10;;;5.80;;
1174;SDS011;576;48.418;10.074;2022-11-11T08:02:27;9.90;;;6.23;;
1174;SDS011;576;48.418;10.074;2022-11-11T08:05:14;7.67;;;5.60;;
1174;SDS011;576;48.418;10.074;2022-11-11T08:08:05;8.60;;;6.33;;
1174;SDS011;576;48.418;10.074;2022-11-11T08:10:53;7.43;;;6.47;;
1174;SDS011;576;48.418;10.074;2022-11-11T08:13:40;9.97;;;5.50;;
1174;SDS011;576;48.418;10.074;2022-11-11T08:16:27;9.17;;;5.60;;
1174;SDS011;576;48.418;10.074;2022-11-11T08:19:13;8.70;;;5.50;;
1174;SDS011;576;48.418;10.074;2022-11-11T08:22:00;10.10;;;6.17;;
1174;SDS011;576;48.418;10.074;2022-11-11T08:24:49;7.60;;;6.50;;
1174;SDS011;576;48.418;10.074;2022-11-11T08:27:55;9.37;;;5.90;;
1174;SDS011;576;48.418;10.074;2022-11-11T08:30:42;7.90;;;5.40;;
1174;SDS011;576;48.418;10.074;2022-11-11T08:33:29;7.43;;;5.40;;
1174;SDS011;576;48.418;10.074;2022-11-11T08:36:18;6.73;;;5.60;;
1174;SDS011;576;48.418;10.074;2022-11-11T08:39:07;9.90;;;5.67;;
1174;SDS011;576;48.418;10.074;2022-11-11T08:41:55;7.53;;;6.70;;
1174;SDS011;576;48.418;10.074;2022-11-11T08:44:42;7.30;;;5.00;;
1174;SDS011;576;48.418;10.074;2022-11-11T08:47:28;7.70;;;5.40;;
1174;SDS011;576;48.418;10.074;2022-11-11T08:50:15;6.93;;;4.73;;
1174;SDS011;576;48.418;10.074;2022-11-11T08:53:02;6.40;;;5.60;;
1174;SDS011;576;48.418;10.074;2022-11-11T08:55:48;7.27;;;5.50;;
1174;SDS011;576;48.418;10.074;2022-11-11T08:58:37;6.23;;;5.13;;
1174;SDS011;576;48.418;10.074;2022-11-11T09:01:24;7.30;;;5.50;;
1174;SDS011;576;48.418;10.074;2022-11-11T09:04:10;5.73;;;5.13;;
1174;SDS011;576;48.418;10.074;2022-11-11T09:07:17;8.50;;;4.93;;
1174;SDS011;576;48.418;10.074;2022-11-11T09:10:04;10.73;;;5.83;;
1174;SDS011;576;48.418;10.074;2022-11-11T09:12:54;6.47;;;4.67;;
1174;SDS011;576;48.418;10.074;2022-11-11T09:15:42;6.70;;;5.83;;
1174;SDS011;576;48.418;10.074;2022-11-11T09:18:29;6.80;;;5.77;;
1174;SDS011;576;48.418;10.074;2022-11-11T09:21:16;6.10;;;4.63;;
1174;SDS011;576;48.418;10.074;2022-11-11T09:24:03;6.10;;;5.40;;
1174;SDS011;576;48.418;10.074;2022-11-11T09:26:51;6.77;;;5.00;;
1174;SDS011;576;48.418;10.074;2022-11-11T09:29:38;5.47;;;4.60;;
1174;SDS011;576;48.418;10.074;2022-11-11T09:32:26;5.40;;;4.73;;
1174;SDS011;576;48.418;10.074;2022-11-11T09:35:12;4.90;;;4.40;;
1174;SDS011;576;48.418;10.074;2022-11-11T09:38:00;5.47;;;4.63;;
1174;SDS011;576;48.418;10.074;2022-11-11T09:41:00;4.97;;;4.47;;
1174;SDS011;576;48.418;10.074;2022-11-11T09:43:55;5.10;;;4.70;;
1174;SDS011;576;48.418;10.074;2022-11-11T09:46:44;5.90;;;4.33;;
1174;SDS011;576;48.418;10.074;2022-11-11T09:49:47;5.03;;;4.60;;
1174;SDS011;576;48.418;10.074;2022-11-11T09:52:45;5.33;;;4.63;;
1174;SDS011;576;48.418;10.074;2022-11-11T09:55:35;5.10;;;4.17;;
1174;SDS011;576;48.418;10.074;2022-11-11T09:58:25;5.70;;;4.17;;
1174;SDS011;576;48.418;10.074;2022-11-11T10:01:18;5.63;;;4.73;;
1174;SDS011;576;48.418;10.074;2022-11-11T10:04:15;4.63;;;4.23;;
1174;SDS011;576;48.418;10.074;2022-11-11T10:07:12;4.50;;;4.10;;
1174;SDS011;576;48.418;10.074;2022-11-11T10:10:10;5.00;;;4.50;;
1174;SDS011;576;48.418;10.074;2022-11-11T10:13:03;5.30;;;4.50;;
1174;SDS011;576;48.418;10.074;2022-11-11T10:16:01;5.67;;;3.77;;
1174;SDS011;576;48.418;10.074;2022-11-11T10:18:54;5.00;;;4.50;;
1174;SDS011;576;48.418;10.074;2022-11-11T10:21:50;6.07;;;3.43;;
1174;SDS011;576;48.418;10.074;2022-11-11T10:25:06;4.07;;;3.67;;
1174;SDS011;576;48.418;10.074;2022-11-11T10:28:04;6.95;;;4.88;;
1174;SDS011;576;48.418;10.074;2022-11-11T10:30:53;5.97;;;4.67;;
1174;SDS011;576;48.418;10.074;2022-11-11T10:33:42;5.43;;;4.10;;
1174;SDS011;576;48.418;10.074;2022-11-11T10:36:35;4.40;;;4.00;;
1174;SDS011;576;48.418;10.074;2022-11-11T10:39:30;5.73;;;4.47;;
1174;SDS011;576;48.418;10.074;2022-11-11T10:42:27;8.03;;;4.60;;
1174;SDS011;576;48.418;10.074;2022-11-11T10:45:15;4.93;;;3.70;;
1174;SDS011;576;48.418;10.074;2022-11-11T10:48:11;7.27;;;3.80;;
1174;SDS011;576;48.418;10.074;2022-11-11T10:51:00;4.70;;;3.80;;
1174;SDS011;576;48.418;10.074;2022-11-11T10:53:51;5.60;;;3.80;;
1174;SDS011;576;48.418;10.074;2022-11-11T10:56:44;4.20;;;3.43;;
1174;SDS011;576;48.418;10.074;2022-11-11T10:59:38;4.60;;;4.20;;
1174;SDS011;576;48.418;10.074;2022-11-11T11:02:30;8.53;;;3.73;;
1174;SDS011;576;48.418;10.074;2022-11-11T11:05:25;7.13;;;4.07;;
1174;SDS011;576;48.418;10.074;2022-11-11T11:08:16;5.50;;;3.70;;
1174;SDS011;576;48.418;10.074;2022-11-11T11:11:08;4.43;;;3.60;;
1174;SDS011;576;48.418;10.074;2022-11-11T11:14:02;4.90;;;3.70;;
1174;SDS011;576;48.418;10.074;2022-11-11T11:16:53;4.47;;;3.70;;
1174;SDS011;576;48.418;10.074;2022-11-11T11:19:43;4.70;;;3.60;;
1174;SDS011;576;48.418;10.074;2022-11-11T11:22:43;4.60;;;3.87;;
1174;SDS011;576;48.418;10.074;2022-11-11T11:25:31;4.90;;;3.63;;
1174;SDS011;576;48.418;10.074;2022-11-11T11:28:18;3.40;;;3.10;;
1174;SDS011;576;48.418;10.074;2022-11-11T11:31:06;3.60;;;3.30;;
1174;SDS011;576;48.418;10.074;2022-11-11T11:33:55;4.33;;;3.67;;
1174;SDS011;576;48.418;10.074;2022-11-11T11:36:43;4.23;;;3.50;;
1174;SDS011;576;48.418;10.074;2022-11-11T11:39:44;4.63;;;4.17;;
1174;SDS011;576;48.418;10.074;2022-11-11T11:42:31;3.27;;;3.07;;
1174;SDS011;576;48.418;10.074;2022-11-11T11:45:20;4.00;;;3.60;;
1174;SDS011;576;48.418;10.074;2022-11-11T11:48:13;3.57;;;3.27;;
1174;SDS011;576;48.418;10.074;2022-11-11T11:51:30;4.20;;;3.07;;
1174;SDS011;576;48.418;10.074;2022-11-11T11:54:25;2.90;;;2.70;;
1174;SDS011;576;48.418;10.074;2022-11-11T11:57:36;3.50;;;3.20;;
1174;SDS011;576;48.418;10.074;2022-11-11T12:00:34;3.27;;;3.07;;
1174;SDS011;576;48.418;10.074;2022-11-11T12:03:33;3.40;;;3.10;;
1174;SDS011;576;48.418;10.074;2022-11-11T12:06:38;2.93;;;2.73;;
1174;SDS011;576;48.418;10.074;2022-11-11T12:09:37;3.67;;;3.37;;
1174;SDS011;576;48.418;10.074;2022-11-11T12:12:32;2.87;;;2.67;;
1174;SDS011;576;48.418;10.074;2022-11-11T12:15:27;2.90;;;2.70;;
1174;SDS011;576;48.418;10.074;2022-11-11T12:18:30;3.27;;;3.03;;
1174;SDS011;576;48.418;10.074;2022-11-11T12:21:31;2.97;;;2.77;;
1174;SDS011;576;48.418;10.074;2022-11-11T12:24:34;3.20;;;3.00;;
1174;SDS011;576;48.418;10.074;2022-11-11T12:27:32;3.63;;;3.33;;
1174;SDS011;576;48.418;10.074;2022-11-11T12:30:27;2.90;;;2.70;;
1174;SDS011;576;48.418;10.074;2022-11-11T12:33:33;2.97;;;2.77;;
1174;SDS011;576;48.418;10.074;2022-11-11T12:36:33;4.30;;;3.73;;
1174;SDS011;576;48.418;10.074;2022-11-11T12:39:40;2.90;;;2.70;;
1174;SDS011;576;48.418;10.074;2022-11-11T12:42:41;4.10;;;3.80;;
1174;SDS011;576;48.418;10.074;2022-11-11T12:45:41;3.70;;;2.90;;
1174;SDS011;576;48.418;10.074;2022-11-11T12:51:48;2.63;;;2.40;;
1174;SDS011;576;48.418;10.074;2022-11-11T12:54:46;2.70;;;2.40;;
1174;SDS011;576;48.418;10.074;2022-11-11T12:57:44;3.10;;;2.63;;
1174;SDS011;576;48.418;10.074;2022-11-11T13:00:39;2.80;;;2.60;;
1174;SDS011;576;48.418;10.074;2022-11-11T13:03:43;4.97;;;2.77;;
1174;SDS011;576;48.418;10.074;2022-11-11T13:06:42;3.37;;;3.17;;
1174;SDS011;576;48.418;10.074;2022-11-11T13:09:44;2.17;;;1.97;;
1174;SDS011;576;48.418;10.074;2022-11-11T13:12:45;2.87;;;2.67;;
1174;SDS011;576;48.418;10.074;2022-11-11T13:15:37;2.77;;;2.57;;
1174;SDS011;576;48.418;10.074;2022-11-11T13:18:25;2.90;;;2.50;;
1174;SDS011;576;48.418;10.074;2022-11-11T13:21:16;4.83;;;3.40;;
1174;SDS011;576;48.418;10.074;2022-11-11T13:24:08;3.97;;;3.67;;
1174;SDS011;576;48.418;10.074;2022-11-11T13:26:58;3.10;;;2.90;;
1174;SDS011;576;48.418;10.074;2022-11-11T13:32:59;3.27;;;2.97;;
1174;SDS011;576;48.418;10.074;2022-11-11T13:35:51;2.80;;;2.60;;
1174;SDS011;576;48.418;10.074;2022-11-11T13:38:43;2.70;;;2.50;;
1174;SDS011;576;48.418;10.074;2022-11-11T13:41:33;2.90;;;2.70;;
1174;SDS011;576;48.418;10.074;2022-11-11T13:44:25;3.10;;;2.63;;
1174;SDS011;576;48.418;10.074;2022-11-11T13:47:17;2.60;;;2.40;;
1174;SDS011;576;48.418;10.074;2022-11-11T13:50:06;2.33;;;2.13;;
1174;SDS011;576;48.418;10.074;2022-11-11T13:52:58;3.30;;;3.10;;
1174;SDS011;576;48.418;10.074;2022-11-11T13:55:47;2.83;;;2.53;;
1174;SDS011;576;48.418;10.074;2022-11-11T13:58:37;3.43;;;3.17;;
1174;SDS011;576;48.418;10.074;2022-11-11T14:01:31;3.35;;;3.10;;
1174;SDS011;576;48.418;10.074;2022-11-11T14:04:26;3.63;;;3.07;;
1174;SDS011;576;48.418;10.074;2022-11-11T14:07:39;2.70;;;2.50;;
1174;SDS011;576;48.418;10.074;2022-11-11T14:10:49;4.83;;;3.63;;
1174;SDS011;576;48.418;10.074;2022-11-11T14:13:39;3.10;;;2.90;;
1174;SDS011;576;48.418;10.074;2022-11-11T14:19:48;2.97;;;2.77;;
1174;SDS011;576;48.418;10.074;2022-11-11T14:22:35;3.53;;;2.70;;
1174;SDS011;576;48.418;10.074;2022-11-11T14:25:23;3.60;;;2.60;;
1174;SDS011;576;48.418;10.074;2022-11-11T14:28:18;3.10;;;2.80;;
1174;SDS011;576;48.418;10.074;2022-11-11T14:34:50;3.67;;;2.57;;
1174;SDS011;576;48.418;10.074;2022-11-11T14:37:51;2.80;;;2.53;;
1174;SDS011;576;48.418;10.074;2022-11-11T14:40:48;3.50;;;3.10;;
1174;SDS011;576;48.418;10.074;2022-11-11T14:43:36;3.93;;;3.07;;
1174;SDS011;576;48.418;10.074;2022-11-11T14:46:24;3.73;;;2.80;;
1174;SDS011;576;48.418;10.074;2022-11-11T14:49:15;3.37;;;2.70;;
1174;SDS011;576;48.418;10.074;2022-11-11T14:52:33;2.60;;;2.40;;
1174;SDS011;576;48.418;10.074;2022-11-11T14:55:23;5.07;;;3.00;;
1174;SDS011;576;48.418;10.074;2022-11-11T14:58:13;7.33;;;3.37;;
1174;SDS011;576;48.418;10.074;2022-11-11T15:01:03;4.03;;;2.77;;
1174;SDS011;576;48.418;10.074;2022-11-11T15:03:59;6.40;;;3.33;;
1174;SDS011;576;48.418;10.074;2022-11-11T15:06:49;5.80;;;3.23;;
1174;SDS011;576;48.418;10.074;2022-11-11T15:09:46;3.47;;;3.13;;
1174;SDS011;576;48.418;10.074;2022-11-11T15:12:51;5.60;;;4.07;;
1174;SDS011;576;48.418;10.074;2022-11-11T15:15:58;3.43;;;2.83;;
1174;SDS011;576;48.418;10.074;2022-11-11T15:18:59;5.23;;;4.27;;
1174;SDS011;576;48.418;10.074;2022-11-11T15:22:06;4.30;;;3.50;;
1174;SDS011;576;48.418;10.074;2022-11-11T15:25:09;4.90;;;4.00;;
1174;SDS011;576;48.418;10.074;2022-11-11T15:28:06;13.07;;;3.87;;
1174;SDS011;576;48.418;10.074;2022-11-11T15:31:04;8.00;;;4.50;;
1174;SDS011;576;48.418;10.074;2022-11-11T15:34:05;9.00;;;4.70;;
1174;SDS011;576;48.418;10.074;2022-11-11T15:37:03;5.07;;;4.00;;
1174;SDS011;576;48.418;10.074;2022-11-11T15:39:54;8.33;;;4.27;;
1174;SDS011;576;48.418;10.074;2022-11-11T15:42:43;7.07;;;3.90;;
1174;SDS011;576;48.418;10.074;2022-11-11T15:45:34;5.60;;;4.07;;
1174;SDS011;576;48.418;10.074;2022-11-11T15:48:23;8.00;;;5.10;;
1174;SDS011;576;48.418;10.074;2022-11-11T15:51:16;6.17;;;4.10;;
1174;SDS011;576;48.418;10.074;2022-11-11T15:54:18;4.40;;;3.30;;
1174;SDS011;576;48.418;10.074;2022-11-11T15:57:14;5.23;;;4.13;;
1174;SDS011;576;48.418;10.074;2022-11-11T16:03:15;4.07;;;3.77;;
1174;SDS011;576;48.418;10.074;2022-11-11T16:06:05;7.30;;;3.83;;
1174;SDS011;576;48.418;10.074;2022-11-11T16:08:54;6.60;;;4.13;;
1174;SDS011;576;48.418;10.074;2022-11-11T16:11:41;4.20;;;3.80;;
1174;SDS011;576;48.418;10.074;2022-11-11T16:14:29;10.33;;;3.90;;
1174;SDS011;576;48.418;10.074;2022-11-11T16:17:22;6.90;;;4.10;;
1174;SDS011;576;48.418;10.074;2022-11-11T16:20:12;7.03;;;4.17;;
1174;SDS011;576;48.418;10.074;2022-11-11T16:23:01;4.47;;;3.63;;
1174;SDS011;576;48.418;10.074;2022-11-11T16:25:52;6.20;;;4.07;;
1174;SDS011;576;48.418;10.074;2022-11-11T16:28:40;5.23;;;3.90;;
1174;SDS011;576;48.418;10.074;2022-11-11T16:31:29;5.27;;;4.30;;
1174;SDS011;576;48.418;10.074;2022-11-11T16:34:34;6.70;;;4.27;;
1174;SDS011;576;48.418;10.074;2022-11-11T16:37:26;5.33;;;3.60;;
1174;SDS011;576;48.418;10.074;2022-11-11T16:40:26;8.17;;;5.00;;
1174;SDS011;576;48.418;10.074;2022-11-11T16:43:15;6.47;;;3.90;;
1174;SDS011;576;48.418;10.074;2022-11-11T16:46:05;5.00;;;3.70;;
1174;SDS011;576;48.418;10.074;2022-11-11T16:48:53;4.80;;;3.67;;
1174;SDS011;576;48.418;10.074;2022-11-11T16:51:42;6.03;;;3.80;;
1174;SDS011;576;48.418;10.074;2022-11-11T16:54:30;4.60;;;4.00;;
1174;SDS011;576;48.418;10.074;2022-11-11T16:57:22;5.10;;;4.60;;
1174;SDS011;576;48.418;10.074;2022-11-11T17:00:12;5.53;;;3.93;;
1174;SDS011;576;48.418;10.074;2022-11-11T17:03:07;3.47;;;3.17;;
1174;SDS011;576;48.418;10.074;2022-11-11T17:05:56;4.30;;;3.90;;
1174;SDS011;576;48.418;10.074;2022-11-11T17:08:46;5.20;;;3.70;;
1174;SDS011;576;48.418;10.074;2022-11-11T17:11:42;5.10;;;4.00;;
1174;SDS011;576;48.418;10.074;2022-11-11T17:14:30;5.00;;;3.70;;
1174;SDS011;576;48.418;10.074;2022-11-11T17:17:18;5.20;;;4.10;;
1174;SDS011;576;48.418;10.074;2022-11-11T17:20:06;4.10;;;3.70;;
1174;SDS011;576;48.418;10.074;2022-11-11T17:22:55;4.33;;;3.20;;
1174;SDS011;576;48.418;10.074;2022-11-11T17:25:44;4.17;;;3.73;;
1174;SDS011;576;48.418;10.074;2022-11-11T17:28:32;3.80;;;3.50;;
1174;SDS011;576;48.418;10.074;2022-11-11T17:31:19;4.37;;;3.97;;
1174;SDS011;576;48.418;10.074;2022-11-11T17:34:08;4.20;;;3.80;;
1174;SDS011;576;48.418;10.074;2022-11-11T17:36:55;4.30;;;3.90;;
1174;SDS011;576;48.418;10.074;2022-11-11T17:39:42;3.60;;;3.30;;
1174;SDS011;576;48.418;10.074;2022-11-11T17:42:30;3.63;;;3.33;;
1174;SDS011;576;48.418;10.074;2022-11-11T17:45:18;5.20;;;4.37;;
1174;SDS011;576;48.418;10.074;2022-11-11T17:48:04;3.60;;;3.40;;
1174;SDS011;576;48.418;10.074;2022-11-11T17:50:51;3.73;;;3.47;;
1174;SDS011;576;48.418;10.074;2022-11-11T17:53:38;3.60;;;3.30;;
1174;SDS011;576;48.418;10.074;2022-11-11T17:56:24;3.90;;;3.60;;
1174;SDS011;576;48.418;10.074;2022-11-11T17:59:13;3.50;;;3.20;;
1174;SDS011;576;48.418;10.074;2022-11-11T18:01:59;3.70;;;3.27;;
1174;SDS011;576;48.418;10.074;2022-11-11T18:04:47;3.90;;;3.60;;
1174;SDS011;576;48.418;10.074;2022-11-11T18:07:33;4.27;;;3.90;;
1174;SDS011;576;48.418;10.074;2022-11-11T18:10:26;4.60;;;3.67;;